Time;durP1;ratioP1;P1;durP2;ratioP2;P2;SDS_P1;SDS_P2;PMS_P1;PMS_P2;Temp;Humidity;BMP_temperature;BMP_pressure;BME280_temperature;BME280_humidity;BME280_pressure;Samples;Min_cycle;Max_cycle;Signal;HPM_P1;HPM_P2
2023/12/18 00:02:11;;;;;;;15.02;5.78;;;8.00;99.90;;;;;;5047724;28;20043;-85
2023/12/18 00:04:36;;;;;;;15.30;6.30;;;8.00;99.90;;;;;;5046840;28;20304;-85
2023/12/18 00:07:03;;;;;;;16.50;5.75;;;;;;;;;;5096458;28;20122;-85
2023/12/18 00:09:28;;;;;;;17.52;6.18;;;8.10;99.90;;;;;;5063582;28;20044;-85
2023/12/18 00:11:54;;;;;;;15.77;5.75;;;8.10;99.90;;;;;;5062765;28;20344;-85
2023/12/18 00:14:20;;;;;;;16.05;5.97;;;8.10;99.90;;;;;;5064001;28;20040;-85
2023/12/18 00:16:45;;;;;;;15.77;5.68;;;8.10;99.90;;;;;;5063262;28;20016;-84
2023/12/18 00:19:11;;;;;;;17.17;5.63;;;8.10;99.90;;;;;;5046690;28;20036;-86
2023/12/18 00:21:37;;;;;;;13.38;5.22;;;7.70;99.90;;;;;;5063382;28;20032;-85
2023/12/18 00:24:02;;;;;;;15.00;5.88;;;8.10;99.90;;;;;;5062162;28;20051;-85
2023/12/18 00:26:28;;;;;;;14.13;5.93;;;8.20;99.90;;;;;;5046177;28;20364;-85
2023/12/18 00:28:54;;;;;;;15.23;5.53;;;8.10;99.90;;;;;;5030769;28;20028;-85
2023/12/18 00:31:19;;;;;;;16.13;5.53;;;8.10;99.90;;;;;;5078927;28;20207;-85
2023/12/18 00:33:45;;;;;;;16.55;6.18;;;8.20;99.90;;;;;;5052148;28;20096;-85
2023/12/18 00:36:11;;;;;;;15.32;5.38;;;8.20;99.90;;;;;;5099310;28;20050;-85
2023/12/18 00:38:37;;;;;;;14.88;5.18;;;8.20;99.90;;;;;;5047114;28;20107;-85
2023/12/18 00:41:03;;;;;;;14.43;5.07;;;8.20;99.90;;;;;;5081528;28;20115;-85
2023/12/18 00:43:29;;;;;;;14.48;5.35;;;8.20;99.90;;;;;;5067350;28;20254;-84
2023/12/18 00:45:55;;;;;;;15.90;5.63;;;8.20;99.90;;;;;;5050613;28;20032;-85
2023/12/18 00:48:21;;;;;;;14.57;5.38;;;8.20;99.90;;;;;;5070032;28;20036;-85
2023/12/18 00:50:47;;;;;;;15.15;5.32;;;8.30;99.90;;;;;;5065089;28;20107;-85
2023/12/18 00:53:16;;;;;;;13.25;4.82;;;8.20;99.90;;;;;;5048285;28;20240;-84
2023/12/18 00:55:43;;;;;;;14.95;5.32;;;8.10;99.90;;;;;;5065204;28;20032;-85
2023/12/18 00:58:09;;;;;;;16.35;5.22;;;8.20;99.90;;;;;;5059731;28;20158;-84
2023/12/18 01:00:35;;;;;;;14.43;5.05;;;8.20;99.90;;;;;;5065603;28;20024;-85
2023/12/18 01:03:01;;;;;;;14.38;5.07;;;8.20;99.90;;;;;;5066734;28;20040;-85
2023/12/18 01:05:26;;;;;;;17.95;5.63;;;8.20;99.90;;;;;;5065546;28;20273;-85
2023/12/18 01:07:52;;;;;;;13.93;5.32;;;8.20;99.90;;;;;;5067124;28;20044;-85
2023/12/18 01:10:18;;;;;;;15.95;5.22;;;8.20;99.90;;;;;;5080655;28;20338;-85
2023/12/18 01:12:45;;;;;;;17.15;5.70;;;8.20;99.90;;;;;;5049239;28;20278;-85
2023/12/18 01:15:10;;;;;;;15.02;4.95;;;8.20;99.90;;;;;;5066509;28;20145;-85
2023/12/18 01:17:36;;;;;;;13.90;4.90;;;8.20;99.90;;;;;;5081716;28;20028;-85
2023/12/18 01:20:06;;;;;;;14.50;5.63;;;8.20;99.90;;;;;;5057517;28;20040;-85
2023/12/18 01:22:31;;;;;;;12.82;5.00;;;8.20;99.90;;;;;;5080744;28;20215;-86
2023/12/18 01:24:57;;;;;;;14.75;5.30;;;8.20;99.90;;;;;;5065952;28;20043;-85
2023/12/18 01:27:23;;;;;;;12.30;4.75;;;8.20;99.90;;;;;;5081312;28;20043;-85
2023/12/18 01:29:48;;;;;;;17.40;5.85;;;8.20;99.90;;;;;;5091669;28;20103;-85
2023/12/18 01:32:14;;;;;;;16.10;5.30;;;8.20;99.90;;;;;;5055603;28;20027;-85
2023/12/18 01:34:40;;;;;;;15.65;5.32;;;8.20;99.90;;;;;;5083289;28;20205;-85
2023/12/18 01:37:05;;;;;;;14.45;4.80;;;8.20;99.90;;;;;;5079698;28;20056;-85
2023/12/18 01:39:32;;;;;;;14.25;4.72;;;8.20;99.90;;;;;;5080997;28;20288;-85
2023/12/18 01:41:59;;;;;;;17.67;5.07;;;8.30;99.90;;;;;;5081101;28;20154;-85
2023/12/18 01:44:25;;;;;;;14.02;4.82;;;8.20;99.90;;;;;;5065100;28;20092;-85
2023/12/18 01:46:51;;;;;;;15.20;5.05;;;8.20;99.90;;;;;;5065765;28;20285;-85
2023/12/18 01:49:16;;;;;;;18.33;5.07;;;8.20;99.90;;;;;;5057802;28;21309;-85
2023/12/18 01:51:43;;;;;;;12.80;4.50;;;8.30;99.90;;;;;;5031210;28;20107;-85
2023/12/18 01:54:09;;;;;;;15.00;4.70;;;8.20;99.90;;;;;;5095595;28;20159;-84
2023/12/18 01:56:36;;;;;;;15.75;4.80;;;8.20;99.90;;;;;;5063633;28;20040;-84
2023/12/18 01:59:02;;;;;;;15.43;4.75;;;8.20;99.90;;;;;;5063058;28;20353;-86
2023/12/18 02:01:30;;;;;;;15.38;4.93;;;8.30;99.90;;;;;;5061249;28;20036;-85
2023/12/18 02:03:56;;;;;;;14.88;4.85;;;8.20;99.90;;;;;;5044785;28;20024;-85
2023/12/18 02:06:23;;;;;;;12.40;5.13;;;8.20;99.90;;;;;;5063548;28;20031;-85
2023/12/18 02:08:49;;;;;;;12.77;4.70;;;8.30;99.90;;;;;;5062704;28;20051;-85
2023/12/18 02:11:15;;;;;;;13.25;4.75;;;8.30;99.90;;;;;;5064995;28;20717;-85
2023/12/18 02:13:41;;;;;;;11.73;4.38;;;8.20;99.90;;;;;;5047199;28;20039;-85
2023/12/18 02:16:07;;;;;;;12.88;4.57;;;8.20;99.90;;;;;;5065064;28;20089;-85
2023/12/18 02:18:32;;;;;;;14.02;5.18;;;8.20;99.90;;;;;;5065465;28;20067;-85
2023/12/18 02:20:58;;;;;;;13.55;4.72;;;8.20;99.90;;;;;;5080479;28;20160;-85
2023/12/18 02:23:24;;;;;;;11.68;4.60;;;8.20;99.90;;;;;;5079932;28;20035;-85
2023/12/18 02:25:50;;;;;;;16.13;5.25;;;8.20;99.90;;;;;;5065935;28;20049;-85
2023/12/18 02:28:17;;;;;;;15.52;5.25;;;8.20;99.90;;;;;;5044141;28;20028;-85
2023/12/18 02:30:43;;;;;;;16.15;5.15;;;8.20;99.90;;;;;;5063999;28;20055;-85
2023/12/18 02:33:09;;;;;;;12.05;4.78;;;8.20;99.90;;;;;;5064339;28;20111;-85
2023/12/18 02:35:35;;;;;;;13.02;4.72;;;8.20;99.90;;;;;;5078493;28;20049;-85
2023/12/18 02:38:00;;;;;;;14.75;4.65;;;8.20;99.90;;;;;;5064016;28;20195;-85
2023/12/18 02:40:26;;;;;;;14.32;4.57;;;8.20;99.90;;;;;;5057560;28;20035;-85
2023/12/18 02:42:52;;;;;;;15.27;4.95;;;8.20;99.90;;;;;;5061570;28;20030;-85
2023/12/18 02:45:18;;;;;;;13.25;4.45;;;8.20;99.90;;;;;;5047223;28;20215;-85
2023/12/18 02:47:44;;;;;;;12.45;4.32;;;8.20;99.90;;;;;;5044802;28;20048;-85
2023/12/18 02:50:10;;;;;;;11.38;4.63;;;8.20;99.90;;;;;;5064793;28;20154;-85
2023/12/18 02:52:36;;;;;;;13.48;4.72;;;8.20;99.90;;;;;;5109114;28;20083;-86
2023/12/18 02:55:02;;;;;;;14.45;4.68;;;8.20;99.90;;;;;;5064376;28;20150;-85
2023/12/18 02:57:28;;;;;;;14.98;4.35;;;8.20;99.90;;;;;;5062920;28;20048;-86
2023/12/18 02:59:53;;;;;;;12.70;4.40;;;8.20;99.90;;;;;;5045264;28;20349;-85
2023/12/18 03:02:19;;;;;;;14.05;4.55;;;8.20;99.90;;;;;;5061140;28;20044;-84
2023/12/18 03:04:45;;;;;;;14.32;4.40;;;8.20;99.90;;;;;;5058584;28;20021;-85
2023/12/18 03:07:11;;;;;;;15.43;4.30;;;8.20;99.90;;;;;;5079150;28;20178;-85
2023/12/18 03:09:37;;;;;;;13.57;4.80;;;8.20;99.90;;;;;;5061616;28;20063;-85
2023/12/18 03:12:04;;;;;;;14.27;4.65;;;8.20;99.90;;;;;;5049031;28;20067;-85
2023/12/18 03:14:29;;;;;;;12.27;4.28;;;8.30;99.90;;;;;;5062898;28;20058;-85
2023/12/18 03:16:55;;;;;;;13.40;3.70;;;8.20;99.90;;;;;;5077321;28;20020;-85
2023/12/18 03:19:21;;;;;;;15.75;4.90;;;8.30;99.90;;;;;;5060723;28;20031;-85
2023/12/18 03:21:47;;;;;;;12.35;3.70;;;8.20;99.90;;;;;;5046159;28;20043;-84
2023/12/18 03:24:13;;;;;;;12.02;4.10;;;8.30;99.90;;;;;;5078968;28;20071;-85
2023/12/18 03:26:38;;;;;;;12.23;3.72;;;8.30;99.90;;;;;;5080145;28;20055;-84
2023/12/18 03:29:04;;;;;;;13.88;4.35;;;8.30;99.90;;;;;;5078384;28;20024;-85
2023/12/18 03:31:30;;;;;;;14.00;3.78;;;8.20;99.90;;;;;;5062531;28;20158;-85
2023/12/18 03:33:56;;;;;;;13.75;3.85;;;8.20;99.90;;;;;;5060487;28;20032;-85
2023/12/18 03:36:22;;;;;;;13.23;3.85;;;8.30;99.90;;;;;;5086746;28;20024;-84
2023/12/18 03:38:48;;;;;;;11.20;3.60;;;8.30;99.90;;;;;;5062969;28;20047;-85
2023/12/18 03:41:14;;;;;;;12.75;4.45;;;8.30;99.90;;;;;;5061957;28;20043;-85
2023/12/18 03:43:40;;;;;;;10.10;3.50;;;8.30;99.90;;;;;;5063387;28;20037;-85
2023/12/18 03:46:06;;;;;;;13.38;3.90;;;8.30;99.90;;;;;;5060364;28;20067;-84
2023/12/18 03:48:32;;;;;;;15.15;4.05;;;8.30;99.90;;;;;;5063377;28;20024;-85
2023/12/18 03:50:58;;;;;;;14.48;3.75;;;8.30;99.90;;;;;;5061196;28;20297;-84
2023/12/18 03:53:23;;;;;;;14.32;4.10;;;8.30;99.90;;;;;;5076918;28;20282;-85
2023/12/18 03:55:49;;;;;;;10.55;4.25;;;8.30;99.90;;;;;;5075696;28;20028;-85
2023/12/18 03:58:15;;;;;;;15.23;4.07;;;8.30;99.90;;;;;;5045834;28;20134;-85
2023/12/18 04:00:41;;;;;;;14.80;4.40;;;8.30;99.90;;;;;;5044740;28;20305;-85
2023/12/18 04:03:07;;;;;;;17.20;4.78;;;8.30;99.90;;;;;;5067080;28;20036;-84
2023/12/18 04:05:33;;;;;;;13.38;4.20;;;8.30;99.90;;;;;;5062453;28;20167;-85
2023/12/18 04:07:59;;;;;;;12.25;3.50;;;8.30;99.90;;;;;;5076411;28;20024;-85
2023/12/18 04:10:24;;;;;;;12.95;3.58;;;8.30;99.90;;;;;;5080965;28;20100;-85
2023/12/18 04:12:51;;;;;;;14.35;4.38;;;8.30;99.90;;;;;;5074890;28;20020;-85
2023/12/18 04:15:17;;;;;;;11.15;4.05;;;8.30;99.90;;;;;;5062329;28;20115;-85
2023/12/18 04:17:43;;;;;;;13.52;4.18;;;8.40;99.90;;;;;;5063297;28;20071;-84
2023/12/18 04:20:09;;;;;;;12.85;3.78;;;8.40;99.90;;;;;;5062998;28;20100;-84
2023/12/18 04:22:34;;;;;;;14.82;3.95;;;8.40;99.90;;;;;;5091179;28;20043;-84
2023/12/18 04:25:00;;;;;;;13.45;3.88;;;8.40;99.90;;;;;;5055788;28;20071;-85
2023/12/18 04:27:26;;;;;;;15.27;4.63;;;8.30;99.90;;;;;;5060267;28;20027;-85
2023/12/18 04:29:52;;;;;;;14.73;4.53;;;8.40;99.90;;;;;;5041915;28;20041;-85
2023/12/18 04:32:17;;;;;;;14.50;4.68;;;8.40;99.90;;;;;;5063723;28;20158;-85
2023/12/18 04:34:44;;;;;;;13.52;5.05;;;8.30;99.90;;;;;;5041543;28;20041;-85
2023/12/18 04:37:10;;;;;;;14.27;4.90;;;8.30;99.90;;;;;;5042411;28;20047;-85
2023/12/18 04:39:36;;;;;;;14.32;5.00;;;8.30;99.90;;;;;;5074996;28;20028;-86
2023/12/18 04:42:02;;;;;;;14.75;5.60;;;8.30;99.90;;;;;;5076686;28;20095;-85
2023/12/18 04:44:28;;;;;;;13.98;5.00;;;8.30;99.90;;;;;;5063460;28;20058;-85
2023/12/18 04:46:54;;;;;;;15.30;5.32;;;8.30;99.90;;;;;;5079130;28;20060;-85
2023/12/18 04:49:20;;;;;;;14.63;5.25;;;8.20;99.90;;;;;;5061988;28;20024;-84
2023/12/18 04:51:47;;;;;;;15.48;5.43;;;8.20;99.90;;;;;;5061398;28;20289;-85
2023/12/18 04:54:13;;;;;;;15.02;5.18;;;8.20;99.90;;;;;;5057651;28;20052;-85
2023/12/18 04:56:39;;;;;;;11.40;4.70;;;8.20;99.90;;;;;;5045785;28;20061;-84
2023/12/18 04:59:05;;;;;;;15.90;5.75;;;8.30;99.90;;;;;;5093359;28;20028;-84
2023/12/18 05:01:30;;;;;;;14.82;4.65;;;8.20;99.90;;;;;;5060282;28;20028;-85
2023/12/18 05:03:56;;;;;;;13.82;4.60;;;8.30;99.90;;;;;;5062692;28;20147;-85
2023/12/18 05:06:27;;;;;;;13.48;5.10;;;8.30;99.90;;;;;;5062738;28;21836;-85
2023/12/18 05:08:53;;;;;;;14.32;4.93;;;8.30;99.90;;;;;;5061990;28;20036;-85
2023/12/18 05:11:21;;;;;;;13.05;4.70;;;8.30;99.90;;;;;;5061570;28;20087;-85
2023/12/18 05:13:47;;;;;;;17.58;5.00;;;8.30;99.90;;;;;;5045509;28;20290;-85
2023/12/18 05:16:14;;;;;;;15.18;5.53;;;8.40;99.90;;;;;;5062587;28;20092;-85
2023/12/18 05:18:40;;;;;;;13.68;5.07;;;8.40;99.90;;;;;;5079436;28;20037;-85
2023/12/18 05:21:06;;;;;;;14.77;5.00;;;8.40;99.90;;;;;;5077623;28;20054;-85
2023/12/18 05:23:32;;;;;;;14.65;4.70;;;8.40;99.90;;;;;;5046196;28;20032;-85
2023/12/18 05:25:58;;;;;;;12.48;4.90;;;8.40;99.90;;;;;;5079302;28;20103;-85
2023/12/18 05:28:27;;;;;;;12.85;4.60;;;8.40;99.90;;;;;;5060021;28;20029;-86
2023/12/18 05:30:53;;;;;;;13.15;5.05;;;8.40;99.90;;;;;;5075064;28;20036;-84
2023/12/18 05:33:18;;;;;;;14.15;5.30;;;8.40;99.90;;;;;;5047923;28;20108;-86
2023/12/18 05:35:44;;;;;;;15.38;5.22;;;8.40;99.90;;;;;;5058787;28;20117;-85
2023/12/18 05:38:10;;;;;;;14.82;4.88;;;8.40;99.90;;;;;;5060988;28;20043;-85
2023/12/18 05:40:36;;;;;;;15.18;4.70;;;8.40;99.90;;;;;;5097754;28;20029;-85
2023/12/18 05:43:02;;;;;;;13.05;5.00;;;8.40;99.90;;;;;;5063385;28;20036;-85
2023/12/18 05:45:28;;;;;;;15.55;5.13;;;8.40;99.90;;;;;;5096212;28;20205;-85
2023/12/18 05:47:54;;;;;;;15.15;5.00;;;8.40;99.90;;;;;;5066015;28;20212;-85
2023/12/18 05:50:20;;;;;;;12.55;4.65;;;8.40;99.90;;;;;;5065845;28;20055;-85
2023/12/18 05:52:46;;;;;;;13.38;5.28;;;8.40;99.90;;;;;;5044880;28;20062;-86
2023/12/18 05:55:11;;;;;;;14.20;4.60;;;8.40;99.90;;;;;;5063372;28;20031;-85
2023/12/18 05:57:38;;;;;;;14.90;5.65;;;8.40;99.90;;;;;;5064239;28;20359;-86
2023/12/18 06:00:07;;;;;;;15.27;5.68;;;8.40;99.90;;;;;;5046879;28;20073;-85
2023/12/18 06:02:33;;;;;;;14.10;5.60;;;8.40;99.90;;;;;;5083437;28;20357;-84
2023/12/18 06:04:59;;;;;;;12.50;5.07;;;8.40;99.90;;;;;;5063899;28;20055;-86
2023/12/18 06:07:25;;;;;;;12.15;5.22;;;8.40;99.90;;;;;;5079909;28;20374;-85
2023/12/18 06:09:51;;;;;;;15.10;5.47;;;8.40;99.90;;;;;;5049542;28;20040;-85
2023/12/18 06:12:17;;;;;;;13.10;5.40;;;8.40;99.90;;;;;;5065361;28;20083;-85
2023/12/18 06:14:43;;;;;;;17.42;5.40;;;8.40;99.90;;;;;;5066821;28;20052;-86
2023/12/18 06:17:09;;;;;;;17.17;5.00;;;8.40;99.90;;;;;;5082246;28;20032;-86
2023/12/18 06:19:35;;;;;;;13.30;5.38;;;8.40;99.90;;;;;;5093235;28;20036;-85
2023/12/18 06:22:04;;;;;;;13.93;5.65;;;8.40;99.90;;;;;;5066910;28;20089;-86
2023/12/18 06:24:30;;;;;;;16.35;5.80;;;8.40;99.90;;;;;;5085028;28;20024;-86
2023/12/18 06:26:56;;;;;;;14.95;5.65;;;8.40;99.90;;;;;;5073654;28;20067;-86
2023/12/18 06:29:25;;;;;;;16.35;5.63;;;8.40;99.90;;;;;;5062334;28;20028;-86
2023/12/18 06:31:51;;;;;;;15.13;5.53;;;8.40;99.90;;;;;;5077260;28;20395;-85
2023/12/18 06:34:17;;;;;;;12.95;5.95;;;8.40;99.90;;;;;;5066518;28;20048;-86
2023/12/18 06:36:43;;;;;;;15.02;6.10;;;8.40;99.90;;;;;;5044587;28;20050;-85
2023/12/18 06:39:10;;;;;;;19.83;6.88;;;8.40;99.90;;;;;;5081987;28;20047;-85
2023/12/18 06:41:36;;;;;;;17.50;6.30;;;8.40;99.90;;;;;;5031758;28;20048;-86
2023/12/18 06:44:02;;;;;;;15.57;6.03;;;8.40;99.90;;;;;;5041217;28;20170;-85
2023/12/18 06:46:29;;;;;;;17.23;6.40;;;8.40;99.90;;;;;;5080947;28;20194;-85
2023/12/18 06:48:55;;;;;;;14.90;5.68;;;8.40;99.90;;;;;;5086484;28;20039;-86
2023/12/18 06:51:22;;;;;;;17.42;6.20;;;8.40;99.90;;;;;;5049911;28;20050;-85
2023/12/18 06:53:47;;;;;;;12.77;5.55;;;8.40;99.90;;;;;;5065740;28;20032;-85
2023/12/18 06:56:13;;;;;;;17.55;7.03;;;8.40;99.90;;;;;;5064792;28;20039;-85
2023/12/18 06:58:39;;;;;;;13.93;5.65;;;8.40;99.90;;;;;;5056016;28;20045;-85
2023/12/18 07:01:05;;;;;;;15.20;6.13;;;8.30;99.90;;;;;;5062338;28;20033;-86
2023/12/18 07:03:31;;;;;;;14.82;6.18;;;8.30;99.90;;;;;;5080389;28;20059;-85
2023/12/18 07:05:57;;;;;;;14.75;6.38;;;8.40;99.90;;;;;;5064129;28;20032;-84
2023/12/18 07:08:22;;;;;;;15.52;6.28;;;8.30;99.90;;;;;;5078991;28;20025;-84
2023/12/18 07:10:49;;;;;;;13.27;6.10;;;8.30;99.90;;;;;;5062382;28;20061;-85
2023/12/18 07:13:15;;;;;;;13.70;6.50;;;8.30;99.90;;;;;;5045007;28;20197;-85
2023/12/18 07:15:41;;;;;;;17.08;6.97;;;8.30;99.90;;;;;;5088768;28;20143;-86
2023/12/18 07:18:12;;;;;;;13.85;6.20;;;8.30;99.90;;;;;;5043601;28;20270;-86
2023/12/18 07:20:37;;;;;;;17.77;6.80;;;8.40;99.90;;;;;;5057814;28;20086;-86
2023/12/18 07:23:03;;;;;;;15.07;6.03;;;8.30;99.90;;;;;;5059390;28;20057;-86
2023/12/18 07:25:29;;;;;;;17.38;6.82;;;8.30;99.90;;;;;;5059216;28;20048;-86
2023/12/18 07:27:55;;;;;;;15.38;5.65;;;8.40;99.90;;;;;;5077354;28;20036;-85
2023/12/18 07:30:20;;;;;;;17.33;7.15;;;8.30;99.90;;;;;;5059217;28;20108;-85
2023/12/18 07:32:46;;;;;;;20.73;6.45;;;8.30;99.90;;;;;;5058665;28;20307;-85
2023/12/18 07:35:12;;;;;;;17.38;6.97;;;8.30;99.90;;;;;;5041695;28;20052;-86
2023/12/18 07:37:38;;;;;;;16.55;6.20;;;8.40;99.90;;;;;;5027394;28;20032;-86
2023/12/18 07:40:06;;;;;;;15.40;6.35;;;8.40;99.90;;;;;;5025148;28;20334;-86
2023/12/18 07:42:32;;;;;;;18.95;6.18;;;7.00;99.90;;;;;;5056620;28;20025;-85
2023/12/18 07:44:57;;;;;;;16.45;6.28;;;8.40;99.90;;;;;;5062757;28;20058;-86
2023/12/18 07:47:23;;;;;;;17.70;6.90;;;8.40;99.90;;;;;;5058984;28;20028;-86
2023/12/18 07:49:49;;;;;;;16.98;6.85;;;8.40;99.90;;;;;;5041220;28;20055;-85
2023/12/18 07:52:16;;;;;;;15.60;6.22;;;8.40;99.90;;;;;;5078876;28;20070;-85
2023/12/18 07:54:42;;;;;;;15.45;6.35;;;8.40;99.90;;;;;;5071646;28;20266;-85
2023/12/18 07:57:08;;;;;;;13.95;6.50;;;8.40;99.90;;;;;;5077808;28;20076;-86
2023/12/18 07:59:39;;;;;;;15.07;6.40;;;8.40;99.90;;;;;;5058855;28;20045;-87
2023/12/18 08:02:07;;;;;;;18.88;6.22;;;8.40;99.90;;;;;;5090230;28;20112;-86
2023/12/18 08:04:33;;;;;;;14.05;6.03;;;8.40;99.90;;;;;;5074806;28;20119;-86
2023/12/18 08:06:58;;;;;;;16.33;6.40;;;8.40;99.90;;;;;;5058470;28;20036;-86
2023/12/18 08:09:26;;;;;;;14.57;6.25;;;8.40;99.90;;;;;;5042769;28;20035;-86
2023/12/18 08:11:52;;;;;;;16.15;6.55;;;8.40;99.90;;;;;;5062032;28;20352;-86
2023/12/18 08:14:18;;;;;;;15.30;6.22;;;8.40;99.90;;;;;;5045870;28;20331;-86
2023/12/18 08:16:44;;;;;;;15.18;6.32;;;8.40;99.90;;;;;;5043234;28;20111;-86
2023/12/18 08:19:10;;;;;;;13.02;6.03;;;8.40;99.90;;;;;;5079244;28;20055;-86
2023/12/18 08:21:35;;;;;;;17.52;7.28;;;8.40;99.90;;;;;;5059120;28;20024;-86
2023/12/18 08:24:01;;;;;;;18.48;6.50;;;8.40;99.90;;;;;;5029837;28;20079;-86
2023/12/18 08:26:27;;;;;;;16.08;6.68;;;8.40;99.90;;;;;;5045775;28;20100;-86
2023/12/18 08:28:53;;;;;;;15.65;6.35;;;8.50;99.90;;;;;;5062338;28;20094;-86
2023/12/18 08:31:19;;;;;;;19.63;7.10;;;8.40;99.90;;;;;;5078831;28;20212;-86
2023/12/18 08:33:45;;;;;;;14.57;6.50;;;8.50;99.90;;;;;;5068594;28;20043;-86
2023/12/18 08:36:11;;;;;;;18.38;6.70;;;8.50;99.90;;;;;;5063246;28;20198;-87
2023/12/18 08:38:37;;;;;;;17.40;7.05;;;8.40;99.90;;;;;;5062969;28;20046;-86
2023/12/18 08:41:03;;;;;;;17.00;6.70;;;8.50;99.90;;;;;;5077484;28;20074;-86
2023/12/18 08:43:28;;;;;;;17.65;7.25;;;8.50;99.90;;;;;;5032475;28;20184;-86
2023/12/18 08:45:54;;;;;;;15.32;6.90;;;8.50;99.90;;;;;;5029141;28;20036;-86
2023/12/18 08:48:20;;;;;;;16.65;6.30;;;8.50;99.90;;;;;;5047788;28;20020;-86
2023/12/18 08:50:45;;;;;;;16.10;6.43;;;8.50;99.90;;;;;;5045464;28;20036;-87
2023/12/18 08:53:11;;;;;;;16.88;6.85;;;8.50;99.90;;;;;;5060976;28;20047;-86
2023/12/18 08:55:39;;;;;;;15.65;6.53;;;8.50;99.90;;;;;;5078567;28;20052;-86
2023/12/18 08:58:14;;;;;;;15.98;6.40;;;8.60;99.90;;;;;;5055648;28;20201;-85
2023/12/18 09:00:40;;;;;;;15.32;6.30;;;8.60;99.90;;;;;;5061326;28;20048;-87
2023/12/18 09:03:06;;;;;;;14.98;6.68;;;8.60;99.90;;;;;;5047432;28;20100;-86
2023/12/18 09:05:31;;;;;;;15.95;6.63;;;8.50;99.90;;;;;;5044824;28;20039;-86
2023/12/18 09:07:57;;;;;;;13.60;6.45;;;8.50;99.90;;;;;;5062788;28;20032;-86
2023/12/18 09:10:24;;;;;;;20.15;6.75;;;8.50;99.90;;;;;;5045648;28;20162;-86
2023/12/18 09:12:51;;;;;;;16.85;6.30;;;8.50;99.90;;;;;;5058037;28;20051;-86
2023/12/18 09:15:17;;;;;;;14.52;6.80;;;8.60;99.90;;;;;;5043215;28;20059;-85
2023/12/18 09:17:43;;;;;;;18.73;6.80;;;8.60;99.90;;;;;;5060588;28;20028;-85
2023/12/18 09:20:09;;;;;;;18.85;7.13;;;8.60;99.90;;;;;;5042998;28;20045;-86
2023/12/18 09:22:36;;;;;;;13.05;6.40;;;8.60;99.90;;;;;;5060889;28;20099;-86
2023/12/18 09:25:02;;;;;;;17.60;6.85;;;8.60;99.90;;;;;;5059950;28;20117;-85
2023/12/18 09:27:28;;;;;;;13.20;6.45;;;8.60;99.90;;;;;;5061308;28;20037;-86
2023/12/18 09:29:54;;;;;;;18.75;7.47;;;8.60;99.90;;;;;;5043510;28;20048;-85
2023/12/18 09:32:19;;;;;;;17.88;7.07;;;8.60;99.90;;;;;;5076030;28;20036;-86
2023/12/18 09:34:45;;;;;;;17.75;7.20;;;8.60;99.90;;;;;;5059148;28;20065;-86
2023/12/18 09:37:11;;;;;;;19.88;8.00;;;8.60;99.90;;;;;;5077142;28;20219;-86
2023/12/18 09:39:41;;;;;;;17.63;7.70;;;8.70;99.90;;;;;;5061954;28;20036;-86
2023/12/18 09:42:09;;;;;;;20.45;7.78;;;8.60;99.90;;;;;;5074669;28;20029;-86
2023/12/18 09:44:36;;;;;;;16.67;7.20;;;8.70;99.90;;;;;;5060990;28;20031;-86
2023/12/18 09:47:03;;;;;;;14.32;7.28;;;8.60;99.90;;;;;;5045380;28;20033;-86
2023/12/18 09:49:29;;;;;;;20.67;7.80;;;8.70;99.90;;;;;;5075192;28;20060;-86
2023/12/18 09:52:00;;;;;;;16.05;7.47;;;8.60;99.90;;;;;;5077719;28;20284;-86
2023/12/18 09:54:27;;;;;;;18.25;8.05;;;8.60;99.90;;;;;;5093277;28;20049;-86
2023/12/18 09:56:55;;;;;;;15.75;7.45;;;8.60;99.90;;;;;;5044730;28;20032;-86
2023/12/18 09:59:21;;;;;;;14.93;7.72;;;8.60;99.90;;;;;;5076506;28;20033;-86
2023/12/18 10:01:48;;;;;;;18.48;8.43;;;8.60;99.90;;;;;;5065829;28;20027;-86
2023/12/18 10:04:13;;;;;;;20.40;8.15;;;8.70;99.90;;;;;;5077659;28;20107;-85
2023/12/18 10:06:39;;;;;;;17.70;8.23;;;8.60;99.90;;;;;;5043311;28;20028;-86
2023/12/18 10:09:15;;;;;;;18.02;8.50;;;8.60;99.90;;;;;;5042480;28;20028;-86
2023/12/18 10:11:44;;;;;;;19.42;8.73;;;8.60;99.90;;;;;;5076815;28;20044;-85
2023/12/18 10:14:16;;;;;;;16.40;8.85;;;8.60;99.90;;;;;;5043948;28;20033;-87
2023/12/18 10:16:43;;;;;;;19.15;8.95;;;8.60;99.90;;;;;;5060648;28;20025;-85
2023/12/18 10:19:10;;;;;;;19.85;9.45;;;8.60;99.90;;;;;;5060009;28;20059;-86
2023/12/18 10:21:39;;;;;;;18.95;8.65;;;8.70;99.90;;;;;;5092154;28;20029;-85
2023/12/18 10:24:07;;;;;;;18.60;9.85;;;8.70;99.90;;;;;;5076529;28;20403;-86
2023/12/18 10:26:33;;;;;;;16.67;8.43;;;8.70;99.90;;;;;;5076088;28;20028;-86
2023/12/18 10:29:00;;;;;;;16.98;9.13;;;8.70;99.90;;;;;;5058646;28;20308;-85
2023/12/18 10:31:25;;;;;;;19.10;9.85;;;8.70;99.90;;;;;;5085110;28;20039;-86
2023/12/18 10:33:52;;;;;;;19.17;9.02;;;8.70;99.90;;;;;;5059963;28;20056;-86
2023/12/18 10:36:18;;;;;;;19.48;9.18;;;8.70;99.90;;;;;;5059586;28;20032;-86
2023/12/18 10:38:50;;;;;;;19.88;9.70;;;8.70;99.90;;;;;;5043644;28;20448;-86
2023/12/18 10:41:23;;;;;;;17.75;9.82;;;8.70;99.90;;;;;;5058069;28;20155;-86
2023/12/18 10:43:50;;;;;;;18.33;9.50;;;8.70;99.90;;;;;;5073858;28;20036;-86
2023/12/18 10:46:16;;;;;;;18.90;9.52;;;8.70;99.90;;;;;;5074568;28;20045;-86
2023/12/18 10:48:43;;;;;;;22.42;10.23;;;8.70;99.90;;;;;;5043727;28;20088;-86
2023/12/18 10:51:10;;;;;;;19.27;9.95;;;8.70;99.90;;;;;;5057491;28;20036;-85
2023/12/18 10:53:37;;;;;;;22.05;10.15;;;8.70;99.90;;;;;;5058329;28;20090;-86
2023/12/18 10:56:05;;;;;;;17.35;9.52;;;8.70;99.90;;;;;;5074589;28;20044;-87
2023/12/18 10:58:33;;;;;;;22.05;9.57;;;8.70;99.90;;;;;;5058870;28;20037;-87
2023/12/18 11:01:00;;;;;;;18.52;9.55;;;8.70;99.90;;;;;;5090120;28;20096;-86
2023/12/18 11:03:27;;;;;;;19.38;9.88;;;8.80;99.90;;;;;;5056863;28;20221;-86
2023/12/18 11:05:55;;;;;;;17.88;9.55;;;8.80;99.90;;;;;;5074419;28;20024;-86
2023/12/18 11:08:21;;;;;;;20.35;9.82;;;8.80;99.90;;;;;;5076793;28;20064;-86
2023/12/18 11:10:47;;;;;;;21.42;10.15;;;8.80;99.90;;;;;;5040724;28;20198;-86
2023/12/18 11:13:26;;;;;;;20.25;10.25;;;8.80;99.90;;;;;;5061895;28;20100;-86
2023/12/18 11:16:20;;;;;;;20.40;9.68;;;8.80;99.90;;;;;;5076514;28;20314;-86
2023/12/18 11:19:07;;;;;;;17.05;9.50;;;8.80;99.90;;;;;;5075579;28;20037;-85
2023/12/18 11:21:34;;;;;;;24.17;10.07;;;8.70;99.90;;;;;;5057104;28;20045;-86
2023/12/18 11:24:00;;;;;;;20.77;9.60;;;8.80;99.90;;;;;;5058974;28;20043;-86
2023/12/18 11:26:28;;;;;;;22.42;9.23;;;8.80;99.90;;;;;;5081559;28;20336;-86
2023/12/18 11:29:24;;;;;;;20.10;9.02;;;8.80;99.90;;;;;;5076524;28;21088;-86
2023/12/18 11:31:53;;;;;;;20.60;9.55;;;9.00;99.90;;;;;;5070006;28;20289;-86
2023/12/18 11:34:21;;;;;;;17.83;9.43;;;8.80;99.90;;;;;;5075413;28;20056;-86
2023/12/18 11:36:48;;;;;;;19.02;9.07;;;8.80;99.90;;;;;;5054486;28;20039;-86
2023/12/18 11:39:14;;;;;;;23.08;9.75;;;8.80;99.90;;;;;;5074128;28;20067;-86
2023/12/18 11:41:47;;;;;;;18.48;9.57;;;8.80;99.90;;;;;;5059149;28;20231;-86
2023/12/18 11:44:14;;;;;;;21.80;9.75;;;8.80;99.90;;;;;;5105322;28;20456;-86
2023/12/18 11:46:41;;;;;;;21.20;10.35;;;8.80;99.90;;;;;;5073205;28;20040;-86
2023/12/18 11:49:07;;;;;;;18.65;9.10;;;8.80;99.90;;;;;;5075430;28;20087;-85
2023/12/18 11:51:34;;;;;;;20.42;8.80;;;8.80;99.90;;;;;;5071295;28;20028;-87
2023/12/18 11:54:01;;;;;;;19.45;9.57;;;8.90;99.90;;;;;;5043415;28;20064;-87
2023/12/18 11:56:28;;;;;;;18.63;9.15;;;8.90;99.90;;;;;;5044230;28;21138;-86
2023/12/18 11:58:55;;;;;;;18.88;8.07;;;8.90;99.90;;;;;;5059598;28;20048;-86
2023/12/18 12:01:21;;;;;;;21.25;8.75;;;8.90;99.90;;;;;;5077040;28;20095;-86
2023/12/18 12:03:47;;;;;;;19.98;9.68;;;8.90;99.90;;;;;;5042886;28;20020;-85
2023/12/18 12:06:14;;;;;;;19.65;9.65;;;8.90;99.90;;;;;;5079988;28;20062;-86
2023/12/18 12:08:58;;;;;;;19.58;8.63;;;8.90;99.90;;;;;;5062251;28;20109;-86
2023/12/18 12:11:24;;;;;;;19.73;9.00;;;8.90;99.90;;;;;;5044635;28;20038;-86
2023/12/18 12:13:56;;;;;;;17.83;8.32;;;8.90;99.90;;;;;;5062121;28;20024;-86
2023/12/18 12:16:22;;;;;;;19.38;8.98;;;8.90;99.90;;;;;;5062519;28;20079;-85
2023/12/18 12:18:54;;;;;;;19.60;9.68;;;8.90;99.90;;;;;;5063004;28;20025;-85
2023/12/18 12:21:21;;;;;;;15.30;8.50;;;8.90;99.90;;;;;;5079408;28;20115;-86
2023/12/18 12:23:50;;;;;;;18.40;8.82;;;8.90;99.90;;;;;;5062683;28;20017;-86
2023/12/18 12:26:18;;;;;;;20.38;8.80;;;8.90;99.90;;;;;;5079369;28;20032;-86
2023/12/18 12:28:43;;;;;;;18.85;8.70;;;8.90;99.90;;;;;;5077803;28;20036;-86
2023/12/18 12:31:09;;;;;;;16.02;8.77;;;9.00;99.90;;;;;;5075844;28;20056;-86
2023/12/18 12:33:42;;;;;;;16.85;8.43;;;8.90;99.90;;;;;;5062812;28;20051;-86
2023/12/18 12:36:08;;;;;;;;;;;9.00;99.90;;;;;;5043748;28;20086;-86
2023/12/18 12:38:39;;;;;;;17.10;8.30;;;9.00;99.90;;;;;;5058186;28;19964;-86
2023/12/18 12:41:05;;;;;;;20.75;9.10;;;9.00;99.90;;;;;;5060994;28;20498;-85
2023/12/18 12:43:32;;;;;;;18.65;8.88;;;9.00;99.90;;;;;;5067536;28;20064;-85
2023/12/18 12:45:59;;;;;;;17.27;8.75;;;9.00;99.90;;;;;;5043650;28;20032;-87